createdAt,value
2024-02-04T00:00:31.670Z,38.80
2024-02-04T00:03:41.246Z,38.70
2024-02-04T00:06:49.494Z,38.60
2024-02-04T00:09:57.632Z,38.50
2024-02-04T00:13:05.936Z,38.50
2024-02-04T00:16:14.426Z,39.00
2024-02-04T00:19:23.955Z,38.40
2024-02-04T00:22:32.233Z,38.30
2024-02-04T00:25:42.573Z,38.30
2024-02-04T00:28:50.751Z,38.20
2024-02-04T00:31:58.670Z,38.10
2024-02-04T00:35:08.885Z,38.10
2024-02-04T00:38:17.030Z,38.10
2024-02-04T00:41:24.837Z,38.00
2024-02-04T00:44:32.844Z,37.90
2024-02-04T00:47:41.198Z,37.90
2024-02-04T00:50:50.547Z,37.90
2024-02-04T00:53:58.796Z,37.80
2024-02-04T00:57:07.014Z,37.80
2024-02-04T01:00:15.580Z,37.70
2024-02-04T01:03:23.788Z,37.70
2024-02-04T01:06:40.651Z,37.70
2024-02-04T01:09:55.870Z,37.60
2024-02-04T01:13:03.814Z,37.60
2024-02-04T01:16:11.714Z,37.60
2024-02-04T01:19:20.024Z,37.60
2024-02-04T01:22:29.684Z,37.50
2024-02-04T01:25:39.916Z,37.50
2024-02-04T01:28:49.796Z,37.50
2024-02-04T01:31:57.906Z,37.40
2024-02-04T01:35:06.972Z,37.40
2024-02-04T01:38:16.497Z,37.30
2024-02-04T01:41:26.119Z,37.40
2024-02-04T01:44:34.150Z,37.30
2024-02-04T01:47:42.328Z,37.30
2024-02-04T01:50:50.768Z,37.40
2024-02-04T01:53:59.853Z,37.30
2024-02-04T01:57:07.900Z,37.30
2024-02-04T02:00:16.173Z,37.40
2024-02-04T02:03:24.494Z,37.30
2024-02-04T02:06:32.615Z,37.30
2024-02-04T02:09:41.889Z,37.30
2024-02-04T02:12:51.014Z,37.30
2024-02-04T02:16:06.857Z,37.30
2024-02-04T02:19:29.725Z,37.30
2024-02-04T02:22:41.945Z,37.30
2024-02-04T02:25:51.226Z,37.30
2024-02-04T02:28:59.400Z,37.30
2024-02-04T02:32:08.073Z,37.30
2024-02-04T02:35:16.753Z,37.20
2024-02-04T02:38:27.571Z,37.20
2024-02-04T02:41:36.973Z,37.20
2024-02-04T02:44:45.252Z,37.20
2024-02-04T02:47:53.672Z,37.20
2024-02-04T02:51:01.695Z,37.20
2024-02-04T02:54:09.827Z,37.20
2024-02-04T02:57:19.194Z,37.20
2024-02-04T03:00:28.193Z,37.20
2024-02-04T03:03:36.309Z,37.20
2024-02-04T03:06:44.368Z,37.10
2024-02-04T03:09:54.627Z,37.10
2024-02-04T03:13:04.234Z,37.10
2024-02-04T03:16:13.139Z,37.10
2024-02-04T03:19:21.826Z,37.20
2024-02-04T03:22:29.866Z,37.10
2024-02-04T03:25:37.685Z,37.10
2024-02-04T03:28:47.092Z,37.10
2024-02-04T03:31:56.055Z,37.10
2024-02-04T03:35:04.274Z,37.10
2024-02-04T03:38:13.573Z,37.10
2024-02-04T03:41:22.604Z,37.10
2024-02-04T03:44:32.395Z,37.10
2024-02-04T03:47:40.582Z,37.10
2024-02-04T03:50:48.878Z,37.10
2024-02-04T03:53:56.861Z,37.10
2024-02-04T03:57:05.160Z,37.10
2024-02-04T04:00:16.057Z,37.10
2024-02-04T04:03:24.069Z,37.10
2024-02-04T04:06:32.464Z,37.10
2024-02-04T04:09:40.676Z,37.10
2024-02-04T04:12:48.845Z,37.10
2024-02-04T04:15:58.366Z,37.10
2024-02-04T04:19:06.313Z,37.10
2024-02-04T04:22:14.331Z,37.70
2024-02-04T04:25:22.435Z,37.00
2024-02-04T04:28:30.496Z,37.10
2024-02-04T04:31:40.067Z,37.10
2024-02-04T04:34:48.384Z,37.00
2024-02-04T04:37:56.523Z,37.10
2024-02-04T04:41:04.801Z,37.00
2024-02-04T04:44:12.915Z,37.00
2024-02-04T04:47:22.391Z,37.00
2024-02-04T04:50:30.474Z,37.20
2024-02-04T04:53:39.044Z,36.90
2024-02-04T04:56:47.205Z,36.90
2024-02-04T04:59:55.442Z,36.90
2024-02-04T05:03:05.182Z,36.90
2024-02-04T05:06:13.111Z,36.80
2024-02-04T05:09:21.360Z,36.90
2024-02-04T05:12:29.533Z,36.80
2024-02-04T05:15:37.794Z,36.80
2024-02-04T05:18:47.520Z,36.80
2024-02-04T05:21:55.566Z,36.80
2024-02-04T05:25:05.980Z,36.80
2024-02-04T05:28:14.243Z,36.80
2024-02-04T05:31:22.334Z,36.80
2024-02-04T05:34:35.427Z,36.80
2024-02-04T05:37:43.568Z,36.80
2024-02-04T05:40:51.664Z,36.80
2024-02-04T05:43:59.516Z,36.80
2024-02-04T05:47:07.406Z,37.40
2024-02-04T05:50:17.074Z,36.80
2024-02-04T05:53:25.008Z,36.80
2024-02-04T05:56:33.282Z,36.80
2024-02-04T05:59:41.501Z,36.70
2024-02-04T06:02:49.742Z,36.70
2024-02-04T06:05:59.384Z,36.70
2024-02-04T06:09:07.580Z,36.70
2024-02-04T06:12:15.790Z,36.70
2024-02-04T06:15:24.072Z,37.30
2024-02-04T06:18:32.055Z,36.70
2024-02-04T06:21:41.685Z,36.70
2024-02-04T06:24:51.161Z,36.70
2024-02-04T06:27:59.306Z,36.70
2024-02-04T06:31:10.556Z,36.70
2024-02-04T06:34:19.499Z,36.70
2024-02-04T06:37:29.260Z,36.70
2024-02-04T06:40:37.347Z,36.70
2024-02-04T06:43:45.536Z,36.70
2024-02-04T06:46:53.701Z,36.70
2024-02-04T06:50:04.185Z,36.70
2024-02-04T06:53:13.602Z,36.70
2024-02-04T06:56:21.809Z,36.70
2024-02-04T06:59:29.549Z,36.70
2024-02-04T07:02:37.840Z,36.70
2024-02-04T07:05:48.298Z,36.70
2024-02-04T07:08:57.715Z,36.70
2024-02-04T07:12:06.791Z,36.70
2024-02-04T07:15:14.944Z,36.70
2024-02-04T07:18:23.815Z,36.70
2024-02-04T07:21:31.726Z,36.70
2024-02-04T07:24:41.048Z,36.70
2024-02-04T07:27:49.199Z,36.70
2024-02-04T07:30:57.330Z,36.70
2024-02-04T07:34:05.789Z,36.70
2024-02-04T07:37:13.712Z,36.70
2024-02-04T07:40:23.217Z,36.70
2024-02-04T07:43:31.394Z,36.70
2024-02-04T07:46:39.657Z,36.70
2024-02-04T07:49:47.969Z,36.70
2024-02-04T07:52:55.891Z,36.90
2024-02-04T07:56:07.637Z,37.00
2024-02-04T07:59:15.576Z,37.10
2024-02-04T08:02:23.559Z,37.10
2024-02-04T08:05:32.528Z,37.10
2024-02-04T08:08:42.078Z,37.10
2024-02-04T08:11:51.410Z,37.20
2024-02-04T08:14:59.259Z,37.40
2024-02-04T08:18:08.676Z,37.70
2024-02-04T08:21:16.872Z,37.90
2024-02-04T08:24:25.202Z,38.10
2024-02-04T08:27:35.002Z,38.70
2024-02-04T08:30:42.846Z,38.90
2024-02-04T08:33:51.189Z,38.90
2024-02-04T08:36:59.207Z,39.00
2024-02-04T08:40:09.129Z,39.10
2024-02-04T08:43:18.414Z,39.20
2024-02-04T08:46:26.574Z,39.50
2024-02-04T08:49:34.693Z,39.80
2024-02-04T08:52:42.858Z,39.60
2024-02-04T08:55:53.392Z,39.30
2024-02-04T08:59:03.436Z,39.10
2024-02-04T09:02:11.781Z,38.90
2024-02-04T09:05:21.153Z,38.90
2024-02-04T09:08:29.222Z,38.80
2024-02-04T09:11:37.347Z,38.60
2024-02-04T09:14:46.846Z,38.60
2024-02-04T09:17:54.996Z,38.50
2024-02-04T09:21:03.318Z,38.50
2024-02-04T09:24:12.354Z,38.30
2024-02-04T09:27:20.198Z,38.30
2024-02-04T09:30:29.798Z,38.30
2024-02-04T09:33:39.124Z,38.20
2024-02-04T09:36:47.668Z,38.20
2024-02-04T09:39:56.152Z,38.70
2024-02-04T09:43:04.318Z,38.00
2024-02-04T09:46:14.199Z,38.00
2024-02-04T09:49:22.538Z,38.00
2024-02-04T09:52:32.285Z,37.90
2024-02-04T09:55:41.079Z,37.80
2024-02-04T09:58:49.506Z,37.80
2024-02-04T10:01:59.328Z,37.70
2024-02-04T10:05:08.916Z,37.70
2024-02-04T10:08:21.064Z,37.70
2024-02-04T10:11:29.684Z,37.60
2024-02-04T10:14:38.284Z,37.50
2024-02-04T10:17:49.028Z,37.50
2024-02-04T10:20:57.228Z,37.50
2024-02-04T10:24:05.617Z,37.50
2024-02-04T10:27:19.291Z,37.40
2024-02-04T10:30:34.244Z,37.40
2024-02-04T10:33:44.147Z,37.40
2024-02-04T10:36:52.399Z,37.40
2024-02-04T10:40:00.637Z,37.40
2024-02-04T10:43:08.665Z,37.30
2024-02-04T10:46:19.248Z,37.30
2024-02-04T10:49:29.045Z,37.30
2024-02-04T10:52:39.365Z,37.30
2024-02-04T10:55:48.663Z,37.30
2024-02-04T10:58:57.201Z,37.20
2024-02-04T11:02:06.006Z,37.20
2024-02-04T11:05:15.449Z,37.20
2024-02-04T11:08:23.660Z,37.20
2024-02-04T11:11:31.565Z,37.20
2024-02-04T11:14:39.576Z,37.20
2024-02-04T11:18:08.494Z,37.20
2024-02-04T11:21:27.704Z,37.20
2024-02-04T11:24:45.428Z,37.10
2024-02-04T11:27:53.795Z,37.10
2024-02-04T11:31:01.919Z,37.10
2024-02-04T11:34:10.304Z,37.10
2024-02-04T11:37:20.781Z,37.00
2024-02-04T11:40:33.233Z,37.00
2024-02-04T11:43:41.344Z,37.00
2024-02-04T11:46:49.720Z,37.00
2024-02-04T11:49:58.179Z,37.00
2024-02-04T11:53:11.840Z,37.00
2024-02-04T11:56:20.682Z,37.00
2024-02-04T11:59:28.865Z,37.00
2024-02-04T12:02:37.033Z,37.00
2024-02-04T12:05:45.229Z,37.00
2024-02-04T12:08:54.765Z,36.90
2024-02-04T12:12:04.176Z,36.90
2024-02-04T12:15:12.494Z,37.00
2024-02-04T12:18:21.518Z,36.90
2024-02-04T12:21:30.013Z,36.90
2024-02-04T12:24:40.096Z,36.90
2024-02-04T12:27:49.763Z,36.90
2024-02-04T12:30:59.767Z,36.90
2024-02-04T12:34:08.154Z,36.90
2024-02-04T12:37:16.176Z,36.90
2024-02-04T12:40:25.525Z,36.90
2024-02-04T12:43:33.677Z,36.90
2024-02-04T12:46:41.873Z,36.90
2024-02-04T12:49:50.893Z,36.90
2024-02-04T12:53:06.471Z,36.90
2024-02-04T12:56:15.990Z,36.90
2024-02-04T12:59:27.844Z,36.90
2024-02-04T13:02:36.479Z,36.90
2024-02-04T13:05:44.375Z,36.90
2024-02-04T13:08:58.604Z,36.80
2024-02-04T13:12:09.696Z,37.40
2024-02-04T13:15:18.063Z,37.50
2024-02-04T13:18:26.038Z,37.80
2024-02-04T13:21:34.019Z,37.90
2024-02-04T13:24:42.299Z,38.00
2024-02-04T13:27:51.875Z,38.10
2024-02-04T13:30:59.838Z,38.10
2024-02-04T13:34:07.745Z,39.20
2024-02-04T13:37:15.804Z,39.40
2024-02-04T13:40:24.477Z,39.60
2024-02-04T13:43:23.151Z,39.50
2024-02-04T13:46:11.112Z,39.60
2024-02-04T13:48:58.961Z,39.60
2024-02-04T13:51:46.689Z,39.70
2024-02-04T13:54:34.586Z,39.60
2024-02-04T13:57:22.188Z,39.60
2024-02-04T14:00:12.460Z,39.50
2024-02-04T14:03:00.046Z,39.40
2024-02-04T14:05:48.611Z,39.40
2024-02-04T14:08:36.720Z,39.60
2024-02-04T14:11:24.502Z,39.60
2024-02-04T14:14:12.417Z,39.40
2024-02-04T14:17:01.801Z,39.50
2024-02-04T14:19:50.844Z,39.50
2024-02-04T14:22:38.770Z,39.60
2024-02-04T14:25:30.186Z,39.50
2024-02-04T14:28:18.612Z,39.50
2024-02-04T14:31:06.625Z,39.50
2024-02-04T14:33:55.633Z,39.50
2024-02-04T14:36:43.707Z,39.40
2024-02-04T14:39:32.576Z,39.40
2024-02-04T14:42:20.603Z,39.30
2024-02-04T14:45:09.968Z,39.30
2024-02-04T14:47:58.059Z,39.50
2024-02-04T14:50:47.393Z,39.50
2024-02-04T14:53:35.256Z,39.60
2024-02-04T14:56:22.831Z,39.60
2024-02-04T14:59:20.816Z,39.50
2024-02-04T15:02:11.063Z,39.70
2024-02-04T15:05:00.039Z,40.00
2024-02-04T15:07:49.144Z,40.00
2024-02-04T15:10:39.506Z,39.90
2024-02-04T15:13:30.992Z,40.00
2024-02-04T15:16:21.672Z,40.20
2024-02-04T15:19:11.123Z,40.00
2024-02-04T15:21:59.742Z,40.00
2024-02-04T15:24:49.766Z,40.00
2024-02-04T15:27:37.887Z,40.00
2024-02-04T15:30:26.977Z,39.80
2024-02-04T15:33:15.439Z,39.80
2024-02-04T15:36:03.426Z,39.80
2024-02-04T15:38:51.231Z,39.80
2024-02-04T15:41:40.640Z,39.90
2024-02-04T15:44:28.749Z,39.90
2024-02-04T15:47:16.660Z,40.00
2024-02-04T15:50:05.420Z,40.00
2024-02-04T15:52:54.709Z,40.00
2024-02-04T15:55:42.970Z,40.20
2024-02-04T15:58:33.151Z,40.10
2024-02-04T16:01:22.039Z,40.10
2024-02-04T16:04:11.089Z,40.30
2024-02-04T16:06:59.457Z,40.20
2024-02-04T16:09:49.435Z,40.10
2024-02-04T16:12:37.620Z,40.10
2024-02-04T16:15:28.372Z,40.20
2024-02-04T16:18:37.212Z,40.10
2024-02-04T16:21:45.666Z,40.20
2024-02-04T16:24:54.026Z,40.20
2024-02-04T16:28:03.713Z,40.20
2024-02-04T16:31:14.013Z,40.20
2024-02-04T16:34:22.302Z,40.10
2024-02-04T16:37:30.529Z,40.10
2024-02-04T16:40:41.034Z,40.10
2024-02-04T16:43:48.921Z,40.10
2024-02-04T16:46:58.633Z,40.00
2024-02-04T16:50:08.983Z,40.00
2024-02-04T16:53:20.209Z,40.00
2024-02-04T16:56:28.154Z,40.00
2024-02-04T16:59:37.874Z,40.00
2024-02-04T17:02:47.901Z,39.90
2024-02-04T17:05:57.255Z,39.90
2024-02-04T17:09:15.120Z,39.80
2024-02-04T17:12:25.426Z,39.80
2024-02-04T17:15:34.301Z,39.70
2024-02-04T17:18:46.560Z,40.30
2024-02-04T17:21:57.533Z,39.70
2024-02-04T17:25:08.094Z,39.70
2024-02-04T17:28:16.771Z,39.70
2024-02-04T17:31:25.295Z,39.60
2024-02-04T17:34:35.534Z,39.70
2024-02-04T17:37:44.975Z,39.90
2024-02-04T17:40:53.111Z,39.90
2024-02-04T17:44:01.455Z,40.10
2024-02-04T17:47:10.990Z,40.10
2024-02-04T17:50:20.471Z,40.10
2024-02-04T17:53:28.597Z,40.60
2024-02-04T17:56:36.680Z,40.60
2024-02-04T17:59:45.310Z,40.70
2024-02-04T18:02:53.350Z,40.80
2024-02-04T18:06:02.518Z,40.60
2024-02-04T18:09:11.354Z,40.50
2024-02-04T18:12:19.568Z,40.60
2024-02-04T18:15:27.369Z,40.60
2024-02-04T18:18:36.170Z,41.30
2024-02-04T18:21:46.483Z,40.80
2024-02-04T18:24:55.913Z,40.90
2024-02-04T18:28:05.695Z,41.00
2024-02-04T18:31:14.055Z,41.00
2024-02-04T18:34:22.536Z,41.30
2024-02-04T18:37:32.135Z,41.50
2024-02-04T18:40:40.194Z,41.50
2024-02-04T18:43:48.370Z,42.40
2024-02-04T18:46:56.451Z,41.60
2024-02-04T18:50:04.776Z,41.70
2024-02-04T18:53:13.951Z,41.60
2024-02-04T18:56:21.828Z,41.90
2024-02-04T18:59:29.984Z,41.70
2024-02-04T19:02:38.108Z,41.70
2024-02-04T19:05:46.288Z,41.70
2024-02-04T19:08:56.375Z,41.60
2024-02-04T19:12:05.065Z,41.60
2024-02-04T19:15:13.104Z,41.50
2024-02-04T19:18:21.240Z,41.70
2024-02-04T19:21:29.469Z,41.70
2024-02-04T19:24:41.105Z,41.80
2024-02-04T19:27:50.240Z,42.10
2024-02-04T19:30:58.559Z,42.20
2024-02-04T19:34:06.505Z,42.00
2024-02-04T19:37:14.368Z,41.90
2024-02-04T19:40:23.972Z,41.90
2024-02-04T19:43:32.237Z,41.90
2024-02-04T19:46:40.423Z,41.90
2024-02-04T19:49:48.540Z,41.80
2024-02-04T19:52:56.613Z,41.70
2024-02-04T19:56:06.455Z,41.80
2024-02-04T19:59:14.580Z,41.70
2024-02-04T20:02:23.806Z,41.50
2024-02-04T20:05:32.118Z,41.70
2024-02-04T20:08:40.198Z,41.60
2024-02-04T20:11:49.678Z,41.50
2024-02-04T20:14:57.836Z,41.50
2024-02-04T20:18:06.490Z,41.50
2024-02-04T20:21:14.466Z,41.40
2024-02-04T20:24:22.567Z,41.40
2024-02-04T20:27:31.951Z,41.30
2024-02-04T20:30:40.110Z,41.20
2024-02-04T20:33:47.907Z,41.10
2024-02-04T20:36:56.234Z,41.60
2024-02-04T20:40:04.778Z,41.30
2024-02-04T20:43:14.324Z,41.20
2024-02-04T20:46:22.523Z,41.10
2024-02-04T20:49:30.662Z,41.00
2024-02-04T20:52:38.491Z,41.00
2024-02-04T20:55:46.823Z,41.00
2024-02-04T20:58:58.549Z,40.90
2024-02-04T21:02:06.778Z,40.90
2024-02-04T21:05:15.345Z,40.80
2024-02-04T21:08:23.316Z,41.30
2024-02-04T21:11:31.465Z,41.50
2024-02-04T21:14:41.464Z,41.80
2024-02-04T21:17:49.494Z,42.10
2024-02-04T21:20:57.885Z,42.40
2024-02-04T21:24:06.274Z,42.50
2024-02-04T21:27:14.574Z,42.80
2024-02-04T21:30:23.957Z,42.80
2024-02-04T21:33:32.142Z,42.90
2024-02-04T21:36:40.817Z,43.00
2024-02-04T21:39:49.032Z,43.30
2024-02-04T21:42:57.319Z,43.20
2024-02-04T21:46:09.687Z,43.20
2024-02-04T21:49:18.002Z,43.20
2024-02-04T21:52:26.282Z,43.30
2024-02-04T21:55:34.459Z,43.20
2024-02-04T21:58:42.714Z,43.20
2024-02-04T22:05:01.034Z,43.10
2024-02-04T22:08:09.435Z,43.30
2024-02-04T22:11:17.616Z,43.30
2024-02-04T22:14:25.780Z,43.10
2024-02-04T22:17:45.666Z,43.10
2024-02-04T22:20:54.769Z,43.00
2024-02-04T22:24:03.199Z,43.00
2024-02-04T22:27:11.384Z,42.80
2024-02-04T22:30:20.558Z,42.80
2024-02-04T22:33:30.008Z,42.70
2024-02-04T22:36:38.108Z,42.70
2024-02-04T22:39:46.231Z,42.60
2024-02-04T22:42:54.831Z,42.50
2024-02-04T22:46:03.468Z,43.10
2024-02-04T22:49:12.833Z,42.50
2024-02-04T22:52:21.246Z,42.40
2024-02-04T22:55:29.225Z,42.30
2024-02-04T22:58:37.398Z,42.20
2024-02-04T23:01:45.499Z,42.20
2024-02-04T23:04:54.869Z,42.00
2024-02-04T23:08:03.209Z,42.00
2024-02-04T23:11:11.213Z,42.00
2024-02-04T23:14:19.469Z,41.80
2024-02-04T23:17:27.661Z,41.80
2024-02-04T23:20:36.915Z,41.70
2024-02-04T23:23:44.945Z,41.70
2024-02-04T23:26:53.090Z,41.60
2024-02-04T23:30:01.077Z,41.50
2024-02-04T23:33:12.750Z,41.50
2024-02-04T23:36:22.097Z,41.40
2024-02-04T23:39:30.509Z,41.40
2024-02-04T23:42:38.754Z,41.30
2024-02-04T23:45:47.042Z,41.20
2024-02-04T23:48:55.281Z,41.20
2024-02-04T23:52:04.781Z,41.20
2024-02-04T23:55:12.793Z,41.10
2024-02-04T23:58:21.834Z,41.00
